Time;durP1;ratioP1;P1;durP2;ratioP2;P2;SDS_P1;SDS_P2;PMS_P1;PMS_P2;Temp;Humidity;BMP_temperature;BMP_pressure;BME280_temperature;BME280_humidity;BME280_pressure;Samples;Min_cycle;Max_cycle;Signal;HPM_P1;HPM_P2
2023/04/14 11:31:35;;;;;;;1.20;1.08;;;;;;;;;;5679955;23;20481;-86
2023/04/14 11:34:07;;;;;;;2.97;1.58;;;;;;;;;;4956181;28;20043;-86
2023/04/14 11:36:38;;;;;;;1.20;1.05;;;;;;;;;;4956246;28;20086;-87
2023/04/14 11:39:04;;;;;;;1.13;1.02;;;;;;;;;;4955772;28;20074;-86
2023/04/14 11:41:30;;;;;;;1.45;1.33;;;;;;;;;;4956386;29;20034;-86
2023/04/14 11:43:55;;;;;;;1.55;1.33;;;;;;;;;;4956147;28;20027;-88
2023/04/14 11:46:21;;;;;;;1.42;1.33;;;;;;;;;;4956290;29;20229;-89
2023/04/14 18:04:04;;;;;;;4.22;2.72;;;;;;;;;;4925813;29;20150;-85
2023/04/14 18:06:33;;;;;;;4.65;3.30;;;;;;;;;;4923679;29;20486;-90
2023/04/14 18:08:58;;;;;;;3.35;3.00;;;;;;;;;;4940289;29;20051;-92
2023/04/14 18:11:24;;;;;;;5.45;3.92;;;;;;;;;;4938912;29;20055;-91
2023/04/14 18:13:50;;;;;;;3.55;2.92;;;;;;;;;;4921968;29;20479;-85
2023/04/14 18:16:18;;;;;;;2.65;2.28;;;;;;;;;;4938854;29;20094;-85
2023/04/14 18:18:43;;;;;;;2.58;2.20;;;;;;;;;;4921549;29;20479;-86
2023/04/14 18:21:09;;;;;;;4.50;2.90;;;;;;;;;;4921338;29;20079;-86
2023/04/14 18:23:35;;;;;;;3.15;2.83;;;;;;;;;;4938520;29;20028;-90
2023/04/14 18:26:01;;;;;;;5.00;3.42;;;;;;;;;;4938793;29;20471;-89
2023/04/14 18:28:27;;;;;;;2.78;2.53;;;;;;;;;;4938621;29;20024;-91
2023/04/14 18:30:59;;;;;;;2.17;2.05;;;;;;;;;;4938199;29;20439;-86
2023/04/14 18:33:26;;;;;;;4.03;2.17;;;;;;;;;;4921312;29;20024;-87
2023/04/14 18:35:53;;;;;;;2.20;2.10;;;;;;;;;;4938187;29;20027;-89
2023/04/14 18:38:18;;;;;;;2.03;1.83;;;;;;;;;;4938310;29;20110;-86
2023/04/14 18:40:45;;;;;;;1.90;1.80;;;;;;;;;;4938142;29;20110;-87
2023/04/14 18:43:11;;;;;;;2.08;1.88;;;;;;;;;;4921158;29;20032;-88
2023/04/14 18:45:36;;;;;;;1.92;1.70;;;;;;;;;;4938735;29;20535;-93
2023/04/14 18:48:03;;;;;;;2.17;2.00;;;;;;;;;;4938359;29;20471;-89
2023/04/14 18:50:29;;;;;;;2.00;1.90;;;;;;;;;;4921212;29;20024;-89
2023/04/14 18:52:54;;;;;;;2.13;1.98;;;;;;;;;;4938149;29;20039;-89
2023/04/14 18:55:20;;;;;;;1.80;1.70;;;;;;;;;;4938086;29;20032;-90
2023/04/14 18:57:45;;;;;;;1.83;1.73;;;;;;;;;;4938093;29;20062;-88
2023/04/14 19:00:14;;;;;;;1.83;1.73;;;;;;;;;;4938036;29;20098;-90
2023/04/14 19:02:39;;;;;;;2.60;2.10;;;;;;;;;;4937899;29;20031;-89
2023/04/14 19:05:06;;;;;;;2.63;2.25;;;;;;;;;;4920432;29;20043;-89
2023/04/14 19:07:32;;;;;;;3.65;2.28;;;;;;;;;;4920806;29;20035;-88
2023/04/14 19:09:57;;;;;;;2.55;2.13;;;;;;;;;;4921114;29;20103;-89
2023/04/14 19:12:23;;;;;;;2.33;2.13;;;;;;;;;;4920994;29;20471;-90
2023/04/14 19:14:48;;;;;;;5.50;3.50;;;;;;;;;;4937984;29;20391;-91
2023/04/14 19:17:14;;;;;;;3.80;2.22;;;;;;;;;;4921813;29;20043;-92
2023/04/14 19:19:40;;;;;;;2.22;2.08;;;;;;;;;;4938459;29;20102;-92
2023/04/14 19:22:05;;;;;;;2.03;1.92;;;;;;;;;;4920946;29;20368;-92
2023/04/14 19:24:31;;;;;;;2.30;1.83;;;;;;;;;;4920800;29;20155;-91
2023/04/14 19:26:57;;;;;;;1.90;1.80;;;;;;;;;;4921406;29;20027;-90
2023/04/14 19:29:22;;;;;;;2.25;1.88;;;;;;;;;;4938124;29;20110;-94
2023/04/14 19:31:48;;;;;;;1.67;1.58;;;;;;;;;;4938508;29;20051;-93
2023/04/14 19:34:13;;;;;;;1.80;1.70;;;;;;;;;;4937805;29;20035;-95
2023/04/14 19:36:38;;;;;;;2.55;1.70;;;;;;;;;;4921045;29;20035;-96
2023/04/14 19:39:04;;;;;;;1.80;1.70;;;;;;;;;;4937965;29;20055;-91
2023/04/14 19:41:30;;;;;;;1.80;1.70;;;;;;;;;;4922338;29;20059;-93
2023/04/14 19:43:55;;;;;;;2.03;1.75;;;;;;;;;;4920937;29;20067;-96
2023/04/14 19:46:21;;;;;;;1.58;1.48;;;;;;;;;;4937993;29;20023;-93
2023/04/14 19:48:47;;;;;;;1.60;1.50;;;;;;;;;;4937565;29;20067;-95
2023/04/14 19:51:12;;;;;;;1.58;1.48;;;;;;;;;;4920545;29;20031;-94
2023/04/14 19:53:38;;;;;;;1.60;1.50;;;;;;;;;;4937665;29;20019;-94
2023/04/14 19:56:04;;;;;;;2.03;1.70;;;;;;;;;;4921093;29;20062;-95
2023/04/14 19:58:31;;;;;;;2.55;1.73;;;;;;;;;;4920308;29;20028;-94
2023/04/14 20:00:57;;;;;;;1.98;1.75;;;;;;;;;;4937457;29;20077;-95
2023/04/14 20:03:24;;;;;;;1.65;1.55;;;;;;;;;;4937500;29;20050;-96
2023/04/14 20:05:54;;;;;;;1.63;1.52;;;;;;;;;;4920709;29;20038;-94
2023/04/14 20:08:21;;;;;;;1.60;1.50;;;;;;;;;;4937643;29;20020;-94
2023/04/14 20:10:50;;;;;;;1.60;1.50;;;;;;;;;;4937578;29;20031;-93
2023/04/14 20:13:21;;;;;;;2.00;1.83;;;;;;;;;;4920636;29;20066;-92
2023/04/14 20:15:48;;;;;;;2.78;1.63;;;;;;;;;;4920647;29;20036;-94
2023/04/14 20:18:16;;;;;;;1.58;1.48;;;;;;;;;;4920132;29;20028;-92
2023/04/14 20:20:42;;;;;;;1.33;1.20;;;;;;;;;;4937257;29;20112;-94
2023/04/14 20:23:08;;;;;;;1.70;1.60;;;;;;;;;;4937162;29;20148;-94
2023/04/14 20:25:36;;;;;;;1.33;1.23;;;;;;;;;;4937293;29;20027;-93
2023/04/14 20:28:02;;;;;;;1.55;1.45;;;;;;;;;;4937208;29;20027;-93
2023/04/14 20:30:30;;;;;;;1.70;1.60;;;;;;;;;;4936861;29;20024;-91
2023/04/14 20:32:57;;;;;;;2.00;1.60;;;;;;;;;;4937252;29;20023;-94
2023/04/14 20:35:22;;;;;;;2.40;2.20;;;;;;;;;;4920108;29;20034;-94
2023/04/14 20:37:48;;;;;;;2.67;2.00;;;;;;;;;;4936883;29;20028;-93
2023/04/14 20:40:16;;;;;;;2.95;2.30;;;;;;;;;;4937161;29;20597;-94
2023/04/14 20:42:42;;;;;;;2.13;1.92;;;;;;;;;;4920070;29;20028;-93
2023/04/14 20:45:08;;;;;;;2.50;2.25;;;;;;;;;;4937012;29;20471;-93
2023/04/14 20:47:34;;;;;;;2.20;2.00;;;;;;;;;;4936968;29;20055;-93
2023/04/14 20:50:00;;;;;;;1.90;1.70;;;;;;;;;;4937020;29;20110;-92
2023/04/14 20:52:26;;;;;;;1.92;1.63;;;;;;;;;;4936988;29;20055;-91
2023/04/14 20:54:52;;;;;;;1.98;1.77;;;;;;;;;;4920546;29;20024;-91
2023/04/14 20:57:18;;;;;;;2.45;2.03;;;;;;;;;;4936972;29;20110;-94
2023/04/14 20:59:43;;;;;;;2.00;1.80;;;;;;;;;;4919855;29;20031;-92
2023/04/14 21:02:09;;;;;;;2.95;1.90;;;;;;;;;;4937093;29;20498;-94
2023/04/14 21:04:34;;;;;;;1.92;1.80;;;;;;;;;;4936563;29;20164;-94
2023/04/14 21:07:00;;;;;;;2.95;2.10;;;;;;;;;;4936925;29;20067;-94
2023/04/14 21:09:26;;;;;;;2.30;2.03;;;;;;;;;;4919974;29;20023;-93
2023/04/14 21:11:52;;;;;;;2.20;1.92;;;;;;;;;;4940846;29;20031;-94
2023/04/14 21:14:17;;;;;;;2.67;1.90;;;;;;;;;;4940596;29;20107;-92
2023/04/14 21:16:43;;;;;;;1.92;1.80;;;;;;;;;;4923323;29;20063;-92
2023/04/14 21:19:08;;;;;;;1.80;1.70;;;;;;;;;;4940430;29;20061;-92
2023/04/14 21:21:34;;;;;;;2.15;2.03;;;;;;;;;;4923279;29;20118;-93
2023/04/14 21:24:00;;;;;;;2.67;2.40;;;;;;;;;;4940284;29;20435;-93
2023/04/14 21:26:27;;;;;;;3.17;2.90;;;;;;;;;;4940322;29;20487;-91
2023/04/14 21:28:52;;;;;;;4.15;3.00;;;;;;;;;;4940279;29;20047;-96
2023/04/14 21:31:18;;;;;;;3.00;2.70;;;;;;;;;;4940632;29;20058;-96
2023/04/14 21:33:44;;;;;;;4.05;2.70;;;;;;;;;;4943142;29;20394;-96
2023/04/14 21:36:10;;;;;;;2.50;2.30;;;;;;;;;;4940850;29;20487;-95
2023/04/14 21:38:36;;;;;;;2.95;2.20;;;;;;;;;;4940550;29;20059;-96
2023/04/14 21:41:02;;;;;;;2.47;2.00;;;;;;;;;;4940001;29;20111;-93
2023/04/14 21:43:27;;;;;;;3.20;2.35;;;;;;;;;;4939994;29;20123;-91
2023/04/14 21:45:53;;;;;;;2.63;2.42;;;;;;;;;;4939920;29;20439;-90
2023/04/14 21:48:19;;;;;;;2.55;2.35;;;;;;;;;;4939554;29;20034;-92
2023/04/14 21:50:45;;;;;;;2.80;2.50;;;;;;;;;;4939938;29;20032;-93
2023/04/14 21:53:11;;;;;;;2.90;2.65;;;;;;;;;;4939863;29;20530;-93
2023/04/14 21:55:37;;;;;;;2.55;2.30;;;;;;;;;;4940050;29;20043;-94
2023/04/14 21:58:03;;;;;;;2.60;2.40;;;;;;;;;;4939646;29;20023;-94
2023/04/14 22:00:29;;;;;;;3.13;2.85;;;;;;;;;;4923027;29;20027;-92
